createdAt,value
2018-10-06T00:00:26.621Z,1006.40
2018-10-06T00:01:26.595Z,1006.41
2018-10-06T00:02:26.590Z,1006.42
2018-10-06T00:03:26.565Z,1006.41
2018-10-06T00:04:26.550Z,1006.43
2018-10-06T00:05:26.531Z,1006.42
2018-10-06T00:06:26.523Z,1006.40
2018-10-06T00:07:26.503Z,1006.39
2018-10-06T00:08:26.499Z,1006.36
2018-10-06T00:09:26.477Z,1006.37
2018-10-06T00:10:26.476Z,1006.36
2018-10-06T00:11:26.444Z,1006.35
2018-10-06T00:12:26.427Z,1006.34
2018-10-06T00:13:26.412Z,1006.33
2018-10-06T00:14:26.397Z,1006.30
2018-10-06T00:15:26.382Z,1006.32
2018-10-06T00:16:26.365Z,1006.30
2018-10-06T00:17:26.351Z,1006.29
2018-10-06T00:18:26.338Z,1006.30
2018-10-06T00:19:26.322Z,1006.29
2018-10-06T00:20:26.307Z,1006.29
2018-10-06T00:21:26.289Z,1006.26
2018-10-06T00:22:26.276Z,1006.26
2018-10-06T00:23:26.260Z,1006.24
2018-10-06T00:24:26.246Z,1006.25
2018-10-06T00:25:26.229Z,1006.24
2018-10-06T00:26:26.218Z,1006.22
2018-10-06T00:27:26.198Z,1006.22
2018-10-06T00:28:26.182Z,1006.22
2018-10-06T00:29:26.167Z,1006.22
2018-10-06T00:30:26.152Z,1006.21
2018-10-06T00:31:26.149Z,1006.22
2018-10-06T00:32:26.123Z,1006.23
2018-10-06T00:33:26.107Z,1006.20
2018-10-06T00:34:26.097Z,1006.21
2018-10-06T00:35:26.088Z,1006.17
2018-10-06T00:36:26.061Z,1006.20
2018-10-06T00:37:26.048Z,1006.18
2018-10-06T00:38:26.031Z,1006.14
2018-10-06T00:39:26.017Z,1006.19
2018-10-06T00:40:26.000Z,1006.14
2018-10-06T00:41:25.987Z,1006.13
2018-10-06T00:42:25.969Z,1006.13
2018-10-06T00:43:25.963Z,1006.11
2018-10-06T00:44:25.939Z,1006.15
2018-10-06T00:45:25.922Z,1006.10
2018-10-06T00:46:26.123Z,1006.14
2018-10-06T00:47:25.902Z,1006.11
2018-10-06T00:48:25.876Z,1006.16
2018-10-06T00:49:25.863Z,1006.16
2018-10-06T00:50:25.847Z,1006.16
2018-10-06T00:51:25.830Z,1006.15
2018-10-06T00:52:25.816Z,1006.16
2018-10-06T00:53:25.801Z,1006.13
2018-10-06T00:54:25.794Z,1006.12
2018-10-06T00:55:25.771Z,1006.08
2018-10-06T00:56:25.754Z,1006.06
2018-10-06T00:57:25.742Z,1006.05
2018-10-06T00:58:25.721Z,1006.02
2018-10-06T00:59:25.722Z,1006.00
2018-10-06T01:00:25.694Z,1005.99
2018-10-06T01:01:25.676Z,1005.95
2018-10-06T01:02:25.663Z,1005.97
2018-10-06T01:03:25.647Z,1005.95
2018-10-06T01:04:25.628Z,1005.96
2018-10-06T01:05:25.614Z,1005.95
2018-10-06T01:06:25.599Z,1005.96
2018-10-06T01:07:25.586Z,1005.97
2018-10-06T01:08:25.567Z,1005.94
2018-10-06T01:09:25.551Z,1005.95
2018-10-06T01:10:25.538Z,1005.92
2018-10-06T01:11:25.542Z,1005.92
2018-10-06T01:12:25.505Z,1005.95
2018-10-06T01:13:25.491Z,1005.94
2018-10-06T01:14:25.488Z,1005.93
2018-10-06T01:15:25.462Z,1005.92
2018-10-06T01:16:25.444Z,1005.89
2018-10-06T01:17:25.424Z,1005.85
2018-10-06T01:18:25.409Z,1005.86
2018-10-06T01:19:25.393Z,1005.81
2018-10-06T01:20:25.378Z,1005.81
2018-10-06T01:21:25.363Z,1005.79
2018-10-06T01:22:25.349Z,1005.79
2018-10-06T01:23:25.332Z,1005.78
2018-10-06T01:24:25.530Z,1005.81
2018-10-06T01:25:25.299Z,1005.79
2018-10-06T01:26:25.289Z,1005.82
2018-10-06T01:27:25.269Z,1005.79
2018-10-06T01:28:25.252Z,1005.78
2018-10-06T01:29:25.239Z,1005.76
2018-10-06T01:30:25.223Z,1005.78
2018-10-06T01:31:25.212Z,1005.76
2018-10-06T01:32:25.190Z,1005.73
2018-10-06T01:33:25.175Z,1005.74
2018-10-06T01:34:25.162Z,1005.75
2018-10-06T01:35:25.145Z,1005.79
2018-10-06T01:36:25.129Z,1005.76
2018-10-06T01:37:25.113Z,1005.73
2018-10-06T01:38:25.097Z,1005.73
2018-10-06T01:39:25.081Z,1005.70
2018-10-06T01:40:25.065Z,1005.70
2018-10-06T01:41:25.050Z,1005.70
2018-10-06T01:42:25.037Z,1005.70
2018-10-06T01:43:25.017Z,1005.69
2018-10-06T01:44:25.000Z,1005.62
2018-10-06T01:45:24.986Z,1005.66
2018-10-06T01:46:25.004Z,1005.64
2018-10-06T01:47:24.955Z,1005.63
2018-10-06T01:48:24.938Z,1005.62
2018-10-06T01:49:24.929Z,1005.63
2018-10-06T01:50:24.910Z,1005.59
2018-10-06T01:51:24.891Z,1005.60
2018-10-06T01:52:24.876Z,1005.58
2018-10-06T01:53:24.860Z,1005.57
2018-10-06T01:54:24.849Z,1005.51
2018-10-06T01:55:24.828Z,1005.52
2018-10-06T01:56:24.821Z,1005.49
2018-10-06T01:57:24.797Z,1005.52
2018-10-06T01:58:24.788Z,1005.51
2018-10-06T01:59:24.765Z,1005.51
2018-10-06T02:00:24.752Z,1005.49
2018-10-06T02:01:24.734Z,1005.46
2018-10-06T02:02:24.723Z,1005.44
2018-10-06T02:03:24.709Z,1005.40
2018-10-06T02:04:24.687Z,1005.42
2018-10-06T02:05:24.679Z,1005.42
2018-10-06T02:06:24.655Z,1005.39
2018-10-06T02:07:24.640Z,1005.38
2018-10-06T02:08:24.624Z,1005.37
2018-10-06T02:09:24.609Z,1005.38
2018-10-06T02:10:24.593Z,1005.33
2018-10-06T02:11:24.577Z,1005.29
2018-10-06T02:12:24.561Z,1005.28
2018-10-06T02:13:24.545Z,1005.27
2018-10-06T02:14:24.529Z,1005.27
2018-10-06T02:15:24.517Z,1005.27
2018-10-06T02:16:24.497Z,1005.24
2018-10-06T02:17:24.484Z,1005.24
2018-10-06T02:18:24.465Z,1005.23
2018-10-06T02:19:24.453Z,1005.22
2018-10-06T02:20:24.436Z,1005.21
2018-10-06T02:21:24.417Z,1005.19
2018-10-06T02:22:24.401Z,1005.18
2018-10-06T02:23:24.398Z,1005.23
2018-10-06T02:24:24.368Z,1005.22
2018-10-06T02:25:24.356Z,1005.26
2018-10-06T02:26:24.339Z,1005.27
2018-10-06T02:27:24.324Z,1005.26
2018-10-06T02:28:24.306Z,1005.25
2018-10-06T02:29:24.292Z,1005.25
2018-10-06T02:30:24.276Z,1005.24
2018-10-06T02:31:24.259Z,1005.22
2018-10-06T02:32:24.243Z,1005.24
2018-10-06T02:33:24.228Z,1005.21
2018-10-06T02:34:24.214Z,1005.24
2018-10-06T02:35:24.196Z,1005.20
2018-10-06T02:36:24.180Z,1005.23
2018-10-06T02:37:24.168Z,1005.25
2018-10-06T02:38:24.149Z,1005.23
2018-10-06T02:39:24.131Z,1005.24
2018-10-06T02:40:24.117Z,1005.24
2018-10-06T02:41:24.098Z,1005.26
2018-10-06T02:42:24.085Z,1005.29
2018-10-06T02:43:24.067Z,1005.29
2018-10-06T02:44:24.050Z,1005.33
2018-10-06T02:45:24.036Z,1005.29
2018-10-06T02:46:24.019Z,1005.30
2018-10-06T02:47:24.014Z,1005.28
2018-10-06T02:48:23.988Z,1005.32
2018-10-06T02:49:23.975Z,1005.37
2018-10-06T02:50:23.957Z,1005.29
2018-10-06T02:51:23.939Z,1005.32
2018-10-06T02:52:23.921Z,1005.35
2018-10-06T02:53:23.907Z,1005.33
2018-10-06T02:54:23.893Z,1005.33
2018-10-06T02:55:23.875Z,1005.32
2018-10-06T02:56:23.861Z,1005.31
2018-10-06T02:57:23.841Z,1005.30
2018-10-06T02:58:23.831Z,1005.30
2018-10-06T02:59:23.810Z,1005.28
2018-10-06T03:00:23.793Z,1005.28
2018-10-06T03:01:23.782Z,1005.29
2018-10-06T03:02:23.761Z,1005.22
2018-10-06T03:03:23.793Z,1005.20
2018-10-06T03:04:23.740Z,1005.23
2018-10-06T03:05:23.713Z,1005.24
2018-10-06T03:06:23.697Z,1005.21
2018-10-06T03:07:23.679Z,1005.18
2018-10-06T03:08:23.665Z,1005.24
2018-10-06T03:09:23.650Z,1005.21
2018-10-06T03:10:23.637Z,1005.23
2018-10-06T03:11:23.616Z,1005.20
2018-10-06T03:12:23.605Z,1005.16
2018-10-06T03:13:23.584Z,1005.14
2018-10-06T03:14:23.570Z,1005.14
2018-10-06T03:15:23.551Z,1005.17
2018-10-06T03:16:23.535Z,1005.16
2018-10-06T03:17:23.522Z,1005.16
2018-10-06T03:18:23.503Z,1005.12
2018-10-06T03:19:23.496Z,1005.14
2018-10-06T03:20:23.467Z,1005.14
2018-10-06T03:21:23.452Z,1005.14
2018-10-06T03:22:23.440Z,1005.11
2018-10-06T03:23:23.422Z,1005.12
2018-10-06T03:24:23.407Z,1005.16
2018-10-06T03:25:23.389Z,1005.10
2018-10-06T03:26:23.380Z,1005.11
2018-10-06T03:27:23.372Z,1005.09
2018-10-06T03:28:23.339Z,1005.11
2018-10-06T03:29:23.324Z,1005.08
2018-10-06T03:30:23.308Z,1005.05
2018-10-06T03:31:23.294Z,1005.03
2018-10-06T03:32:23.276Z,1005.07
2018-10-06T03:33:23.258Z,1005.02
2018-10-06T03:34:23.245Z,1004.99
2018-10-06T03:35:23.228Z,1004.92
2018-10-06T03:36:23.212Z,1004.98
2018-10-06T03:37:23.208Z,1004.98
2018-10-06T03:38:23.175Z,1004.97
2018-10-06T03:39:23.166Z,1005.01
2018-10-06T03:40:23.143Z,1004.98
2018-10-06T03:41:23.130Z,1004.99
2018-10-06T03:42:23.116Z,1004.99
2018-10-06T03:43:23.096Z,1004.97
2018-10-06T03:44:23.114Z,1005.00
2018-10-06T03:45:23.059Z,1004.97
2018-10-06T03:46:23.046Z,1004.98
2018-10-06T03:47:23.030Z,1004.96
2018-10-06T03:48:23.008Z,1004.92
2018-10-06T03:49:23.001Z,1004.94
2018-10-06T03:50:22.981Z,1004.92
2018-10-06T03:51:22.961Z,1004.88
2018-10-06T03:52:22.942Z,1004.89
2018-10-06T03:53:22.931Z,1004.86
2018-10-06T03:54:22.908Z,1004.82
2018-10-06T03:55:22.906Z,1004.80
2018-10-06T03:56:22.876Z,1004.80
2018-10-06T03:57:22.864Z,1004.82
2018-10-06T03:58:22.844Z,1004.80
2018-10-06T03:59:22.844Z,1004.76
2018-10-06T04:00:22.811Z,1004.76
2018-10-06T04:01:22.794Z,1004.78
2018-10-06T04:02:22.783Z,1004.73
2018-10-06T04:03:22.764Z,1004.78
2018-10-06T04:04:22.749Z,1004.75
2018-10-06T04:05:22.729Z,1004.71
2018-10-06T04:06:22.711Z,1004.75
2018-10-06T04:07:22.697Z,1004.73
2018-10-06T04:08:22.679Z,1004.71
2018-10-06T04:09:22.660Z,1004.67
2018-10-06T04:10:22.683Z,1004.68
2018-10-06T04:11:22.627Z,1004.66
2018-10-06T04:12:22.613Z,1004.68
2018-10-06T04:13:22.595Z,1004.67
2018-10-06T04:14:22.579Z,1004.70
2018-10-06T04:15:22.563Z,1004.67
2018-10-06T04:16:22.545Z,1004.72
2018-10-06T04:17:22.527Z,1004.69
2018-10-06T04:18:22.512Z,1004.72
2018-10-06T04:19:22.496Z,1004.70
2018-10-06T04:20:22.482Z,1004.67
2018-10-06T04:21:22.461Z,1004.66
2018-10-06T04:22:22.447Z,1004.70
2018-10-06T04:23:22.427Z,1004.67
2018-10-06T04:24:22.411Z,1004.64
2018-10-06T04:25:22.400Z,1004.64
2018-10-06T04:26:22.379Z,1004.65
2018-10-06T04:27:22.366Z,1004.64
2018-10-06T04:28:22.419Z,1004.61
2018-10-06T04:29:22.332Z,1004.62
2018-10-06T04:30:22.312Z,1004.64
2018-10-06T04:31:22.296Z,1004.57
2018-10-06T04:32:22.282Z,1004.55
2018-10-06T04:33:22.262Z,1004.51
2018-10-06T04:34:22.244Z,1004.52
2018-10-06T04:35:22.229Z,1004.51
2018-10-06T04:36:22.212Z,1004.50
2018-10-06T04:37:22.213Z,1004.49
2018-10-06T04:38:22.180Z,1004.48
2018-10-06T04:39:22.162Z,1004.49
2018-10-06T04:40:22.154Z,1004.44
2018-10-06T04:41:22.131Z,1004.43
2018-10-06T04:42:22.114Z,1004.44
2018-10-06T04:43:22.096Z,1004.42
2018-10-06T04:44:22.080Z,1004.41
2018-10-06T04:45:22.063Z,1004.36
2018-10-06T04:46:22.052Z,1004.35
2018-10-06T04:47:22.031Z,1004.37
2018-10-06T04:48:22.020Z,1004.37
2018-10-06T04:49:21.994Z,1004.36
2018-10-06T04:50:21.978Z,1004.34
2018-10-06T04:51:22.029Z,1004.34
2018-10-06T04:52:21.947Z,1004.36
2018-10-06T04:53:21.931Z,1004.34
2018-10-06T04:54:21.913Z,1004.34
2018-10-06T04:55:21.893Z,1004.33
2018-10-06T04:56:21.876Z,1004.32
2018-10-06T04:57:21.861Z,1004.33
2018-10-06T04:58:21.843Z,1004.30
2018-10-06T04:59:21.828Z,1004.31
2018-10-06T05:00:21.813Z,1004.32
2018-10-06T05:01:21.801Z,1004.31
2018-10-06T05:02:21.777Z,1004.28
2018-10-06T05:03:21.859Z,1004.29
2018-10-06T05:04:21.745Z,1004.30
2018-10-06T05:05:21.727Z,1004.27
2018-10-06T05:06:21.712Z,1004.30
2018-10-06T05:07:21.693Z,1004.25
2018-10-06T05:08:21.674Z,1004.23
2018-10-06T05:09:21.659Z,1004.25
2018-10-06T05:10:21.650Z,1004.18
2018-10-06T05:11:21.627Z,1004.19
2018-10-06T05:12:21.629Z,1004.17
2018-10-06T05:13:21.595Z,1004.14
2018-10-06T05:14:21.575Z,1004.13
2018-10-06T05:15:21.558Z,1004.09
2018-10-06T05:16:21.540Z,1004.12
2018-10-06T05:17:21.525Z,1004.12
2018-10-06T05:18:21.511Z,1004.14
2018-10-06T05:19:21.491Z,1004.10
2018-10-06T05:20:21.473Z,1004.06
2018-10-06T05:21:21.459Z,1004.11
2018-10-06T05:22:21.444Z,1004.05
2018-10-06T05:23:21.475Z,1004.05
2018-10-06T05:24:21.406Z,1004.09
2018-10-06T05:25:21.389Z,1004.09
2018-10-06T05:26:21.372Z,1004.08
2018-10-06T05:27:21.360Z,1004.10
2018-10-06T05:28:21.340Z,1004.10
2018-10-06T05:29:21.321Z,1004.09
2018-10-06T05:30:21.310Z,1004.13
2018-10-06T05:31:21.290Z,1004.11
2018-10-06T05:32:21.272Z,1004.13
2018-10-06T05:33:21.263Z,1004.13
2018-10-06T05:34:21.236Z,1004.15
2018-10-06T05:35:21.224Z,1004.17
2018-10-06T05:36:21.203Z,1004.13
2018-10-06T05:37:21.186Z,1004.14
2018-10-06T05:38:21.169Z,1004.16
2018-10-06T05:39:21.157Z,1004.13
2018-10-06T05:40:21.140Z,1004.09
2018-10-06T05:41:21.117Z,1004.11
2018-10-06T05:42:21.100Z,1004.11
2018-10-06T05:43:21.084Z,1004.10
2018-10-06T05:44:21.069Z,1004.12
2018-10-06T05:45:21.059Z,1004.07
2018-10-06T05:46:21.094Z,1004.08
2018-10-06T05:47:21.028Z,1004.08
2018-10-06T05:48:21.002Z,1004.08
2018-10-06T05:49:20.984Z,1004.03
2018-10-06T05:50:20.970Z,1004.05
2018-10-06T05:51:20.951Z,1004.04
2018-10-06T05:52:20.936Z,1004.03
2018-10-06T05:53:20.917Z,1004.01
2018-10-06T05:54:20.901Z,1004.00
2018-10-06T05:55:20.883Z,1004.02
2018-10-06T05:56:20.872Z,1004.00
2018-10-06T05:57:20.851Z,1004.00
2018-10-06T05:58:20.830Z,1004.00
2018-10-06T05:59:20.817Z,1003.98
2018-10-06T06:00:20.802Z,1004.00
2018-10-06T06:01:20.785Z,1003.98
2018-10-06T06:02:20.767Z,1003.98
2018-10-06T06:03:20.753Z,1003.99
2018-10-06T06:04:20.731Z,1003.99
2018-10-06T06:05:20.713Z,1004.00
2018-10-06T06:06:20.699Z,1004.00
2018-10-06T06:07:20.682Z,1004.02
2018-10-06T06:08:20.663Z,1004.03
2018-10-06T06:09:20.745Z,1004.01
2018-10-06T06:10:20.628Z,1004.04
2018-10-06T06:11:20.612Z,1004.03
2018-10-06T06:12:20.594Z,1004.02
2018-10-06T06:13:20.579Z,1003.99
2018-10-06T06:14:20.561Z,1004.00
2018-10-06T06:15:20.545Z,1004.02
2018-10-06T06:16:20.529Z,1004.00
2018-10-06T06:17:20.513Z,1004.02
2018-10-06T06:18:20.491Z,1004.02
2018-10-06T06:19:20.477Z,1004.01
2018-10-06T06:20:20.460Z,1004.03
2018-10-06T06:21:20.444Z,1004.02
2018-10-06T06:22:20.427Z,1004.01
2018-10-06T06:23:20.410Z,1004.00
2018-10-06T06:24:20.394Z,1003.98
2018-10-06T06:25:20.383Z,1004.00
2018-10-06T06:26:20.374Z,1003.98
2018-10-06T06:27:20.345Z,1003.97
2018-10-06T06:28:20.330Z,1004.03
2018-10-06T06:29:20.317Z,1004.03
2018-10-06T06:30:20.304Z,1004.04
2018-10-06T06:31:20.447Z,1004.04
2018-10-06T06:32:20.320Z,1004.03
2018-10-06T06:33:20.257Z,1004.08
2018-10-06T06:34:20.243Z,1004.06
2018-10-06T06:35:20.232Z,1004.10
2018-10-06T06:36:20.216Z,1004.06
2018-10-06T06:37:20.198Z,1004.08
2018-10-06T06:38:20.254Z,1004.15
2018-10-06T06:39:20.171Z,1004.18
2018-10-06T06:40:20.162Z,1004.20
2018-10-06T06:41:20.146Z,1004.25
2018-10-06T06:42:20.134Z,1004.30
2018-10-06T06:43:20.122Z,1004.32
2018-10-06T06:44:20.244Z,1004.32
2018-10-06T06:45:20.100Z,1004.34
2018-10-06T06:46:20.090Z,1004.37
2018-10-06T06:47:20.085Z,1004.44
2018-10-06T06:48:20.063Z,1004.43
2018-10-06T06:49:20.054Z,1004.45
2018-10-06T06:50:20.040Z,1004.38
2018-10-06T06:51:20.033Z,1004.42
2018-10-06T06:52:20.024Z,1004.43
2018-10-06T06:53:20.012Z,1004.42
2018-10-06T06:54:20.000Z,1004.40
2018-10-06T06:55:19.995Z,1004.39
2018-10-06T06:56:19.992Z,1004.44
2018-10-06T06:57:19.971Z,1004.51
2018-10-06T06:58:19.963Z,1004.51
2018-10-06T06:59:19.955Z,1004.48
2018-10-06T07:00:19.948Z,1004.46
2018-10-06T07:01:19.936Z,1004.47
2018-10-06T07:02:19.928Z,1004.49
2018-10-06T07:03:19.922Z,1004.52
2018-10-06T07:04:19.910Z,1004.49
2018-10-06T07:05:19.904Z,1004.53
2018-10-06T07:06:19.897Z,1004.55
2018-10-06T07:07:19.893Z,1004.54
2018-10-06T07:08:19.888Z,1004.55
2018-10-06T07:09:19.873Z,1004.61
2018-10-06T07:10:19.867Z,1004.57
2018-10-06T07:11:19.867Z,1004.58
2018-10-06T07:12:19.873Z,1004.63
2018-10-06T07:13:19.848Z,1004.63
2018-10-06T07:14:19.846Z,1004.62
2018-10-06T07:15:19.837Z,1004.65
2018-10-06T07:16:19.831Z,1004.69
2018-10-06T07:17:19.827Z,1004.68
2018-10-06T07:18:19.825Z,1004.72
2018-10-06T07:19:19.821Z,1004.67
2018-10-06T07:20:19.813Z,1004.65
2018-10-06T07:21:19.811Z,1004.68
2018-10-06T07:22:19.804Z,1004.62
2018-10-06T07:23:19.801Z,1004.64
2018-10-06T07:24:19.803Z,1004.60
2018-10-06T07:25:19.794Z,1004.59
2018-10-06T07:26:19.800Z,1004.58
2018-10-06T07:27:19.788Z,1004.61
2018-10-06T07:28:19.809Z,1004.60
2018-10-06T07:29:19.789Z,1004.56
2018-10-06T07:30:19.781Z,1004.57
2018-10-06T07:31:19.779Z,1004.62
2018-10-06T07:32:19.779Z,1004.60
2018-10-06T07:33:19.776Z,1004.61
2018-10-06T07:34:19.775Z,1004.57
2018-10-06T07:35:19.771Z,1004.54
2018-10-06T07:36:19.780Z,1004.53
2018-10-06T07:37:19.771Z,1004.54
2018-10-06T07:38:19.771Z,1004.59
2018-10-06T07:39:19.770Z,1004.57
2018-10-06T07:40:19.770Z,1004.56
2018-10-06T07:41:19.776Z,1004.58
2018-10-06T07:42:19.772Z,1004.60
2018-10-06T07:43:19.769Z,1004.57
2018-10-06T07:44:19.775Z,1004.61
2018-10-06T07:45:19.770Z,1004.61
2018-10-06T07:46:19.771Z,1004.63
2018-10-06T07:47:19.772Z,1004.63
2018-10-06T07:48:19.776Z,1004.65
2018-10-06T07:49:19.779Z,1004.67
2018-10-06T07:50:19.779Z,1004.68
2018-10-06T07:51:19.775Z,1004.63
2018-10-06T07:52:19.775Z,1004.63
2018-10-06T07:53:19.780Z,1004.66
2018-10-06T07:54:19.789Z,1004.63
2018-10-06T07:55:19.783Z,1004.62
2018-10-06T07:56:19.782Z,1004.61
2018-10-06T07:57:19.794Z,1004.61
2018-10-06T07:58:19.821Z,1004.60
2018-10-06T07:59:19.857Z,1004.57
2018-10-06T08:00:19.802Z,1004.59
2018-10-06T08:01:19.829Z,1004.63
2018-10-06T08:02:19.797Z,1004.55
2018-10-06T08:03:19.800Z,1004.59
2018-10-06T08:04:19.805Z,1004.60
2018-10-06T08:05:19.810Z,1004.57
2018-10-06T08:06:19.870Z,1004.58
2018-10-06T08:07:19.815Z,1004.53
2018-10-06T08:08:19.820Z,1004.53
2018-10-06T08:09:19.827Z,1004.60
2018-10-06T08:10:19.824Z,1004.55
2018-10-06T08:11:19.825Z,1004.50
2018-10-06T08:12:19.830Z,1004.52
2018-10-06T08:13:19.831Z,1004.49
2018-10-06T08:14:19.835Z,1004.51
2018-10-06T08:15:19.845Z,1004.50
2018-10-06T08:16:19.853Z,1004.46
2018-10-06T08:17:19.854Z,1004.46
2018-10-06T08:18:19.849Z,1004.44
2018-10-06T08:19:19.854Z,1004.46
2018-10-06T08:20:19.856Z,1004.48
2018-10-06T08:21:19.860Z,1004.49
2018-10-06T08:22:19.865Z,1004.51
2018-10-06T08:23:19.869Z,1004.48
2018-10-06T08:24:19.883Z,1004.49
2018-10-06T08:25:19.873Z,1004.49
2018-10-06T08:26:19.877Z,1004.46
2018-10-06T08:27:19.885Z,1004.43
2018-10-06T08:28:19.889Z,1004.48
2018-10-06T08:29:19.900Z,1004.44
2018-10-06T08:30:19.896Z,1004.44
2018-10-06T08:31:19.899Z,1004.44
2018-10-06T08:32:19.901Z,1004.41
2018-10-06T08:33:19.904Z,1004.44
2018-10-06T08:34:19.909Z,1004.44
2018-10-06T08:35:19.911Z,1004.45
2018-10-06T08:36:19.913Z,1004.41
2018-10-06T08:37:19.918Z,1004.46
2018-10-06T08:38:19.922Z,1004.42
2018-10-06T08:39:19.929Z,1004.37
2018-10-06T08:40:19.930Z,1004.44
2018-10-06T08:41:19.933Z,1004.46
2018-10-06T08:42:19.934Z,1004.45
2018-10-06T08:43:19.941Z,1004.48
2018-10-06T08:44:19.943Z,1004.44
2018-10-06T08:45:19.946Z,1004.33
2018-10-06T08:46:19.961Z,1004.28
2018-10-06T08:47:19.952Z,1004.27
2018-10-06T08:48:19.964Z,1004.25
2018-10-06T08:49:19.959Z,1004.26
2018-10-06T08:50:19.960Z,1004.26
2018-10-06T08:51:19.974Z,1004.24
2018-10-06T08:52:19.968Z,1004.28
2018-10-06T08:53:19.975Z,1004.24
2018-10-06T08:54:19.973Z,1004.19
2018-10-06T08:55:19.976Z,1004.22
2018-10-06T08:56:20.137Z,1004.19
2018-10-06T08:57:19.990Z,1004.14
2018-10-06T08:58:19.988Z,1004.13
2018-10-06T08:59:19.987Z,1004.09
2018-10-06T09:00:20.008Z,1004.17
2018-10-06T09:01:20.000Z,1004.13
2018-10-06T09:02:19.994Z,1004.11
2018-10-06T09:03:20.000Z,1004.15
2018-10-06T09:04:20.064Z,1004.13
2018-10-06T09:05:20.001Z,1004.13
2018-10-06T09:06:20.004Z,1004.09
2018-10-06T09:07:20.005Z,1004.11
2018-10-06T09:08:20.006Z,1004.12
2018-10-06T09:09:20.014Z,1004.06
2018-10-06T09:10:20.022Z,1004.10
2018-10-06T09:11:20.009Z,1004.09
2018-10-06T09:12:20.011Z,1004.11
2018-10-06T09:13:20.012Z,1004.13
2018-10-06T09:14:20.012Z,1004.06
2018-10-06T09:15:20.022Z,1004.02
2018-10-06T09:16:20.015Z,1004.08
2018-10-06T09:17:20.024Z,1004.10
2018-10-06T09:18:20.020Z,1004.01
2018-10-06T09:19:20.040Z,1003.90
2018-10-06T09:20:20.028Z,1003.90
2018-10-06T09:21:20.017Z,1003.89
2018-10-06T09:22:20.022Z,1003.88
2018-10-06T09:23:20.024Z,1003.91
2018-10-06T09:24:20.021Z,1003.85
2018-10-06T09:25:20.030Z,1003.82
2018-10-06T09:26:20.025Z,1003.78
2018-10-06T09:27:20.021Z,1003.84
2018-10-06T09:28:20.119Z,1003.87
2018-10-06T09:29:20.035Z,1003.89
2018-10-06T09:30:20.023Z,1003.91
2018-10-06T09:31:20.024Z,1003.97
2018-10-06T09:32:20.023Z,1003.99
2018-10-06T09:33:20.024Z,1003.96
2018-10-06T09:34:20.027Z,1003.95
2018-10-06T09:35:20.027Z,1003.97
2018-10-06T09:36:20.022Z,1003.96
2018-10-06T09:37:20.020Z,1004.02
2018-10-06T09:38:20.032Z,1004.01
2018-10-06T09:39:20.044Z,1004.08
2018-10-06T09:40:20.018Z,1004.17
2018-10-06T09:41:20.020Z,1003.97
2018-10-06T09:42:20.273Z,1003.62
2018-10-06T09:43:20.019Z,1003.33
2018-10-06T09:44:20.015Z,1003.26
2018-10-06T09:45:20.013Z,1003.25
2018-10-06T09:46:20.026Z,1003.23
2018-10-06T09:47:20.011Z,1003.21
2018-10-06T09:48:20.008Z,1003.21
2018-10-06T09:49:20.007Z,1003.24
2018-10-06T09:50:20.010Z,1003.19
2018-10-06T09:51:20.015Z,1003.20
2018-10-06T09:52:19.999Z,1003.22
2018-10-06T09:53:19.996Z,1003.19
2018-10-06T09:54:19.995Z,1003.16
2018-10-06T09:55:20.003Z,1003.12
2018-10-06T09:56:19.991Z,1003.16
2018-10-06T09:57:20.312Z,1003.10
2018-10-06T09:58:19.987Z,1003.11
2018-10-06T09:59:20.008Z,1003.09
2018-10-06T10:00:19.985Z,1003.05
2018-10-06T10:01:19.974Z,1003.08
2018-10-06T10:02:19.972Z,1003.01
2018-10-06T10:03:19.971Z,1003.02
2018-10-06T10:04:19.967Z,1003.04
2018-10-06T10:05:20.029Z,1003.03
2018-10-06T10:06:19.956Z,1003.01
2018-10-06T10:07:19.958Z,1002.99
2018-10-06T10:08:19.953Z,1002.97
2018-10-06T10:09:19.980Z,1002.92
2018-10-06T10:10:19.949Z,1002.94
2018-10-06T10:11:19.942Z,1002.92
2018-10-06T10:12:19.936Z,1002.98
2018-10-06T10:13:19.933Z,1002.94
2018-10-06T10:14:19.938Z,1002.90
2018-10-06T10:15:19.966Z,1002.90
2018-10-06T10:16:19.927Z,1002.84
2018-10-06T10:17:20.020Z,1002.82
2018-10-06T10:18:20.155Z,1002.85
2018-10-06T10:19:19.918Z,1002.79
2018-10-06T10:20:19.906Z,1002.83
2018-10-06T10:21:19.900Z,1002.81
2018-10-06T10:22:19.996Z,1002.78
2018-10-06T10:23:19.925Z,1002.76
2018-10-06T10:24:19.891Z,1002.77
2018-10-06T10:25:19.879Z,1002.72
2018-10-06T10:26:19.885Z,1002.67
2018-10-06T10:27:19.873Z,1002.71
2018-10-06T10:28:19.897Z,1002.73
2018-10-06T10:29:19.856Z,1002.69
2018-10-06T10:30:19.862Z,1002.65
2018-10-06T10:31:19.847Z,1002.64
2018-10-06T10:32:19.844Z,1002.66
2018-10-06T10:33:19.847Z,1002.67
2018-10-06T10:34:20.201Z,1002.62
2018-10-06T10:35:19.828Z,1002.66
2018-10-06T10:36:19.827Z,1002.63
2018-10-06T10:37:19.833Z,1002.59
2018-10-06T10:38:19.813Z,1002.60
2018-10-06T10:39:19.979Z,1002.59
2018-10-06T10:40:19.799Z,1002.53
2018-10-06T10:41:19.801Z,1002.54
2018-10-06T10:42:19.798Z,1002.53
2018-10-06T10:43:19.789Z,1002.54
2018-10-06T10:44:19.809Z,1002.49
2018-10-06T10:45:19.780Z,1002.48
2018-10-06T10:46:19.774Z,1002.45
2018-10-06T10:47:19.768Z,1002.44
2018-10-06T10:48:19.875Z,1002.43
2018-10-06T10:49:19.770Z,1002.46
2018-10-06T10:50:19.751Z,1002.42
2018-10-06T10:51:19.794Z,1002.32
2018-10-06T10:52:19.958Z,1002.44
2018-10-06T10:53:19.735Z,1002.36
2018-10-06T10:54:19.777Z,1002.33
2018-10-06T10:55:20.059Z,1002.31
2018-10-06T10:56:19.723Z,1002.31
2018-10-06T10:57:19.725Z,1002.32
2018-10-06T10:58:19.709Z,1002.33
2018-10-06T10:59:19.759Z,1002.29
2018-10-06T11:00:19.751Z,1002.30
2018-10-06T11:01:19.722Z,1002.29
2018-10-06T11:02:19.685Z,1002.24
2018-10-06T11:03:19.682Z,1002.29
2018-10-06T11:04:19.683Z,1002.22
2018-10-06T11:05:19.880Z,1002.21
2018-10-06T11:06:19.672Z,1002.17
2018-10-06T11:07:19.659Z,1002.18
2018-10-06T11:08:19.653Z,1002.17
2018-10-06T11:09:19.649Z,1002.20
2018-10-06T11:10:19.643Z,1002.20
2018-10-06T11:11:19.719Z,1002.18
2018-10-06T11:12:19.640Z,1002.19
2018-10-06T11:13:19.633Z,1002.14
2018-10-06T11:14:19.620Z,1002.12
2018-10-06T11:15:19.619Z,1002.09
2018-10-06T11:16:19.610Z,1002.11
2018-10-06T11:17:19.640Z,1002.10
2018-10-06T11:18:19.601Z,1002.12
2018-10-06T11:19:19.596Z,1002.10
2018-10-06T11:20:19.599Z,1002.11
2018-10-06T11:21:19.584Z,1002.07
2018-10-06T11:22:19.580Z,1002.06
2018-10-06T11:23:19.571Z,1002.04
2018-10-06T11:24:19.566Z,1002.06
2018-10-06T11:25:19.559Z,1002.06
2018-10-06T11:26:19.568Z,1002.06
2018-10-06T11:27:19.553Z,1002.06
2018-10-06T11:28:19.556Z,1002.06
2018-10-06T11:29:19.541Z,1002.05
2018-10-06T11:30:19.539Z,1002.01
2018-10-06T11:31:19.530Z,1001.99
2018-10-06T11:32:19.524Z,1001.97
2018-10-06T11:33:19.532Z,1001.93
2018-10-06T11:34:19.518Z,1001.98
2018-10-06T11:35:19.509Z,1001.97
2018-10-06T11:36:19.510Z,1002.00
2018-10-06T11:37:19.596Z,1001.98
2018-10-06T11:38:19.536Z,1001.95
2018-10-06T11:39:19.489Z,1001.97
2018-10-06T11:40:19.492Z,1001.93
2018-10-06T11:41:19.478Z,1001.90
2018-10-06T11:42:19.478Z,1001.88
2018-10-06T11:43:19.470Z,1001.86
2018-10-06T11:44:19.465Z,1001.85
2018-10-06T11:45:19.456Z,1001.84
2018-10-06T11:46:19.453Z,1001.78
2018-10-06T11:47:19.447Z,1001.79
2018-10-06T11:48:19.446Z,1001.75
2018-10-06T11:49:19.435Z,1001.76
2018-10-06T11:50:19.464Z,1001.73
2018-10-06T11:51:19.428Z,1001.69
2018-10-06T11:52:19.423Z,1001.63
2018-10-06T11:53:19.424Z,1001.65
2018-10-06T11:54:19.726Z,1001.68
2018-10-06T11:55:19.406Z,1001.67
2018-10-06T11:56:19.399Z,1001.71
2018-10-06T11:57:19.395Z,1001.65
2018-10-06T11:58:19.597Z,1001.63
2018-10-06T11:59:19.385Z,1001.61
2018-10-06T12:00:19.585Z,1001.60
2018-10-06T12:01:19.374Z,1001.58
2018-10-06T12:02:19.384Z,1001.63
2018-10-06T12:03:19.403Z,1001.62
2018-10-06T12:04:19.359Z,1001.59
2018-10-06T12:05:19.672Z,1001.64